Time;durP1;ratioP1;P1;durP2;ratioP2;P2;SDS_P1;SDS_P2;PMS_P1;PMS_P2;Temp;Humidity;BMP_temperature;BMP_pressure;BME280_temperature;BME280_humidity;BME280_pressure;Samples;Min_cycle;Max_cycle;Signal;HPM_P1;HPM_P2
2022/07/20 00:01:02;;;;;;;0.50;0.40;;;22.60;53.80;;;;;;6179610;28;20030;-68
2022/07/20 00:04:04;;;;;;;0.57;0.57;;;22.60;53.70;;;;;;6171023;28;20023;-69
2022/07/20 00:07:04;;;;;;;0.43;0.43;;;22.60;53.80;;;;;;6193427;28;20022;-68
2022/07/20 00:13:25;;;;;;;0.80;0.70;;;22.60;53.80;;;;;;6170820;28;20390;-68
2022/07/20 00:16:28;;;;;;;0.45;0.45;;;22.60;53.80;;;;;;6186973;28;20288;-68
2022/07/20 00:19:28;;;;;;;0.50;0.50;;;22.60;53.70;;;;;;6199432;28;20628;-69
2022/07/20 00:22:29;;;;;;;0.73;0.50;;;22.60;53.80;;;;;;6175577;28;20027;-68
2022/07/20 00:25:30;;;;;;;0.60;0.60;;;22.60;53.80;;;;;;6183339;28;20037;-68
2022/07/20 00:28:31;;;;;;;0.50;0.50;;;22.60;53.80;;;;;;6199545;28;20493;-69
2022/07/20 00:31:31;;;;;;;0.60;0.60;;;22.60;53.80;;;;;;6183844;28;20034;-68
2022/07/20 00:34:32;;;;;;;0.77;0.60;;;22.60;53.80;;;;;;6175527;28;20054;-69
2022/07/20 00:37:32;;;;;;;0.57;0.55;;;22.60;53.80;;;;;;6198344;28;20041;-68
2022/07/20 00:40:33;;;;;;;0.60;0.57;;;22.60;53.80;;;;;;6193135;28;20647;-68
2022/07/20 00:43:55;;;;;;;0.52;0.50;;;22.60;53.80;;;;;;6175283;28;20113;-68
2022/07/20 00:46:56;;;;;;;0.70;0.50;;;22.60;53.80;;;;;;6191726;28;20025;-68
2022/07/20 00:49:57;;;;;;;0.80;0.65;;;22.60;53.80;;;;;;6198926;28;20069;-68
2022/07/20 00:53:00;;;;;;;1.92;0.80;;;22.60;53.80;;;;;;6174857;28;20027;-68
2022/07/20 00:56:01;;;;;;;0.55;0.50;;;22.60;53.80;;;;;;6198284;28;20038;-69
2022/07/20 00:59:04;;;;;;;0.73;0.60;;;22.60;53.80;;;;;;6198909;28;20014;-68
2022/07/20 01:02:05;;;;;;;0.50;0.50;;;22.60;53.80;;;;;;6183004;28;20099;-69
2022/07/20 01:05:15;;;;;;;0.90;0.57;;;22.60;53.80;;;;;;6175405;28;20031;-68
2022/07/20 01:08:16;;;;;;;0.50;0.50;;;22.60;53.80;;;;;;6198429;28;20895;-69
2022/07/20 01:11:17;;;;;;;0.57;0.52;;;22.60;54.50;;;;;;6198529;28;20037;-69
2022/07/20 01:14:18;;;;;;;0.60;0.60;;;22.60;53.80;;;;;;6183827;28;20030;-68
2022/07/20 01:17:18;;;;;;;0.85;0.50;;;22.60;53.80;;;;;;6190010;28;20065;-68
2022/07/20 01:20:19;;;;;;;0.68;0.47;;;22.60;53.80;;;;;;6198463;28;20027;-69
2022/07/20 01:23:20;;;;;;;1.15;0.70;;;22.60;53.90;;;;;;6175499;28;20109;-69
2022/07/20 01:26:20;;;;;;;0.30;0.30;;;22.60;53.90;;;;;;6195426;28;20030;-68
2022/07/20 01:29:21;;;;;;;0.50;0.50;;;22.60;53.80;;;;;;6179139;28;20512;-68
2022/07/20 01:32:22;;;;;;;0.60;0.57;;;22.60;53.80;;;;;;6184092;28;20081;-68
2022/07/20 01:35:22;;;;;;;0.75;0.60;;;22.60;53.80;;;;;;6189202;28;20655;-68
2022/07/20 01:38:23;;;;;;;0.88;0.68;;;22.60;53.80;;;;;;6195133;28;20080;-68
2022/07/20 01:41:24;;;;;;;0.50;0.50;;;22.60;53.80;;;;;;6193395;28;20417;-68
2022/07/20 01:44:25;;;;;;;0.50;0.50;;;22.60;53.80;;;;;;6173953;28;20051;-69
2022/07/20 01:47:25;;;;;;;0.93;0.50;;;22.60;53.90;;;;;;6186136;28;20168;-68
2022/07/20 01:50:26;;;;;;;0.70;0.60;;;22.60;53.80;;;;;;6197737;28;20058;-68
2022/07/20 01:53:27;;;;;;;0.60;0.60;;;22.60;53.90;;;;;;6180737;28;20077;-68
2022/07/20 01:56:28;;;;;;;0.50;0.50;;;22.60;53.90;;;;;;6212580;28;20401;-69
2022/07/20 01:59:28;;;;;;;0.50;0.50;;;22.60;54.60;;;;;;6197432;28;20041;-68
2022/07/20 02:02:29;;;;;;;0.55;0.35;;;22.60;53.90;;;;;;6186707;28;20062;-69
2022/07/20 02:05:30;;;;;;;0.70;0.60;;;22.60;53.90;;;;;;6173175;28;20394;-68
2022/07/20 02:08:30;;;;;;;0.70;0.60;;;22.60;53.90;;;;;;6191486;28;20034;-69
2022/07/20 02:11:31;;;;;;;0.60;0.60;;;22.60;53.90;;;;;;6195737;28;20034;-69
2022/07/20 02:14:31;;;;;;;0.47;0.47;;;22.60;53.90;;;;;;6173051;28;20054;-68
2022/07/20 02:17:32;;;;;;;0.68;0.65;;;22.60;53.90;;;;;;6182271;28;20036;-68
2022/07/20 02:20:33;;;;;;;0.63;0.60;;;22.60;53.90;;;;;;6197213;28;20058;-68
2022/07/20 02:23:34;;;;;;;0.85;0.60;;;22.60;53.90;;;;;;6180018;28;20034;-69
2022/07/20 02:26:35;;;;;;;0.82;0.63;;;22.60;54.00;;;;;;6195701;28;20678;-68
2022/07/20 02:29:35;;;;;;;0.65;0.65;;;22.60;53.90;;;;;;6195983;28;20410;-68
2022/07/20 02:32:36;;;;;;;0.63;0.50;;;22.60;53.90;;;;;;6187429;28;20018;-68
2022/07/20 02:35:36;;;;;;;0.50;0.50;;;22.60;53.90;;;;;;6174207;28;20121;-69
2022/07/20 02:38:38;;;;;;;0.88;0.70;;;22.60;53.90;;;;;;6194463;28;20026;-68
2022/07/20 02:41:38;;;;;;;0.63;0.60;;;22.60;53.90;;;;;;6196343;28;20537;-69
2022/07/20 02:44:39;;;;;;;0.90;0.63;;;22.60;53.90;;;;;;6173968;28;20037;-69
2022/07/20 02:47:44;;;;;;;0.45;0.45;;;22.60;53.90;;;;;;6178625;28;20030;-68
2022/07/20 02:50:45;;;;;;;0.55;0.50;;;22.60;54.00;;;;;;6196626;28;20623;-69
2022/07/20 02:53:46;;;;;;;0.90;0.60;;;22.60;53.90;;;;;;6187553;28;20023;-69
2022/07/20 02:56:46;;;;;;;0.47;0.47;;;22.60;53.90;;;;;;6196524;28;20489;-69
2022/07/20 02:59:47;;;;;;;0.77;0.60;;;22.60;53.90;;;;;;6196233;28;20175;-69
2022/07/20 03:02:48;;;;;;;1.25;0.50;;;22.60;53.90;;;;;;6191061;28;20493;-69
2022/07/20 03:05:49;;;;;;;0.70;0.70;;;22.60;53.90;;;;;;6172066;28;20116;-69
2022/07/20 03:08:49;;;;;;;0.70;0.57;;;22.60;54.00;;;;;;6184421;28;20022;-69
2022/07/20 03:11:50;;;;;;;0.80;0.55;;;22.60;54.00;;;;;;6195839;28;20026;-69
2022/07/20 03:14:51;;;;;;;1.00;0.60;;;22.60;53.90;;;;;;6175339;28;20031;-69
2022/07/20 03:17:53;;;;;;;0.70;0.70;;;22.60;53.90;;;;;;6175100;28;20144;-69
2022/07/20 03:20:53;;;;;;;0.82;0.60;;;22.60;54.00;;;;;;6195820;28;20465;-68
2022/07/20 03:23:55;;;;;;;0.50;0.50;;;22.60;54.00;;;;;;6183702;28;20043;-68
2022/07/20 03:26:55;;;;;;;1.05;0.65;;;22.60;54.00;;;;;;6171702;28;20027;-69
2022/07/20 03:29:56;;;;;;;1.02;0.68;;;22.60;54.00;;;;;;6190096;28;20485;-68
2022/07/20 03:32:57;;;;;;;0.55;0.55;;;22.60;54.00;;;;;;6193132;28;20033;-68
2022/07/20 03:35:57;;;;;;;0.70;0.68;;;22.60;54.00;;;;;;6171527;28;20030;-69
2022/07/20 03:38:58;;;;;;;0.57;0.55;;;22.60;54.00;;;;;;6180904;28;20102;-68
2022/07/20 03:41:59;;;;;;;0.60;0.50;;;22.60;54.00;;;;;;6195201;28;20027;-69
2022/07/20 03:45:00;;;;;;;0.65;0.60;;;22.60;54.00;;;;;;6178064;28;20066;-69
2022/07/20 03:48:00;;;;;;;0.60;0.57;;;22.60;54.10;;;;;;6171236;28;20106;-68
2022/07/20 03:51:01;;;;;;;0.65;0.60;;;22.60;54.10;;;;;;6195139;28;20570;-68
2022/07/20 03:54:01;;;;;;;0.50;0.40;;;22.60;54.00;;;;;;6193364;28;20033;-68
2022/07/20 03:57:02;;;;;;;0.68;0.60;;;22.60;54.00;;;;;;6195242;28;20030;-68
2022/07/20 04:00:04;;;;;;;0.63;0.55;;;22.60;54.10;;;;;;6194748;28;20054;-68
2022/07/20 04:03:05;;;;;;;1.55;0.70;;;22.60;54.00;;;;;;6177984;28;20029;-68
2022/07/20 04:06:06;;;;;;;0.60;0.60;;;22.60;54.10;;;;;;6171048;28;20023;-68
2022/07/20 04:09:06;;;;;;;0.50;0.50;;;22.60;54.10;;;;;;6177692;28;20037;-68
2022/07/20 04:12:09;;;;;;;0.82;0.55;;;22.60;54.00;;;;;;6195171;28;20025;-68
2022/07/20 04:15:10;;;;;;;0.60;0.60;;;22.60;54.00;;;;;;6179928;28;20033;-68
2022/07/20 04:18:10;;;;;;;0.55;0.47;;;22.60;54.10;;;;;;6170805;28;20027;-69
2022/07/20 04:21:11;;;;;;;0.60;0.60;;;22.60;54.00;;;;;;6192809;28;20073;-69
2022/07/20 04:24:12;;;;;;;0.85;0.70;;;22.60;54.00;;;;;;6189465;28;20482;-68
2022/07/20 04:27:12;;;;;;;0.50;0.50;;;22.60;54.10;;;;;;6170601;28;20077;-68
2022/07/20 04:30:14;;;;;;;0.70;0.60;;;22.60;54.10;;;;;;6183619;28;20478;-68
2022/07/20 04:33:14;;;;;;;0.80;0.70;;;22.60;54.10;;;;;;6194801;28;20026;-69
2022/07/20 04:36:15;;;;;;;1.02;0.60;;;22.60;54.10;;;;;;6173825;28;20078;-68
2022/07/20 04:39:16;;;;;;;0.60;0.60;;;22.60;54.10;;;;;;6174405;28;20102;-68
2022/07/20 04:42:16;;;;;;;0.60;0.60;;;22.60;54.10;;;;;;6194815;28;20049;-68
2022/07/20 04:45:17;;;;;;;0.75;0.70;;;22.60;54.10;;;;;;6182865;28;20041;-69
2022/07/20 04:48:19;;;;;;;0.45;0.45;;;22.60;54.10;;;;;;6170808;28;20423;-68
2022/07/20 04:51:20;;;;;;;0.60;0.60;;;22.60;54.10;;;;;;6189539;28;20358;-68
2022/07/20 04:54:21;;;;;;;0.50;0.50;;;22.60;54.10;;;;;;6194158;28;20026;-68
2022/07/20 04:57:22;;;;;;;0.50;0.50;;;22.60;54.10;;;;;;6194308;28;20042;-68
2022/07/20 05:00:32;;;;;;;0.93;0.82;;;22.60;54.10;;;;;;6194022;28;20676;-68
2022/07/20 05:03:32;;;;;;;0.60;0.60;;;22.60;54.10;;;;;;6173221;28;20045;-68
2022/07/20 05:06:33;;;;;;;0.70;0.60;;;22.60;54.10;;;;;;6193342;28;20577;-68
2022/07/20 05:09:34;;;;;;;0.60;0.60;;;22.60;54.10;;;;;;6198640;28;20030;-68
2022/07/20 05:12:34;;;;;;;1.08;0.60;;;22.50;54.10;;;;;;6199044;28;20023;-68
2022/07/20 05:15:35;;;;;;;1.13;0.88;;;22.60;54.10;;;;;;6188433;28;20030;-68
2022/07/20 05:18:35;;;;;;;0.98;0.80;;;22.60;54.10;;;;;;6174650;28;20110;-68
2022/07/20 05:21:36;;;;;;;1.00;0.88;;;22.60;54.10;;;;;;6191979;28;20034;-68
2022/07/20 05:24:37;;;;;;;0.80;0.65;;;22.60;54.10;;;;;;6198169;28;20023;-68
2022/07/20 05:27:37;;;;;;;0.70;0.70;;;22.50;54.00;;;;;;6198311;28;20550;-68
2022/07/20 05:30:38;;;;;;;0.68;0.68;;;22.60;54.10;;;;;;6198104;28;20085;-69
2022/07/20 05:33:39;;;;;;;0.82;0.70;;;22.60;54.10;;;;;;6198430;28;20085;-68
2022/07/20 05:36:40;;;;;;;1.05;0.80;;;22.60;54.10;;;;;;6182087;28;20386;-68
2022/07/20 05:39:40;;;;;;;0.45;0.40;;;22.60;54.10;;;;;;6173770;28;20074;-68
2022/07/20 05:42:41;;;;;;;1.17;0.63;;;22.60;54.10;;;;;;6197500;28;20482;-68
2022/07/20 05:45:43;;;;;;;0.82;0.70;;;22.60;54.10;;;;;;6191085;28;20023;-68
2022/07/20 05:48:43;;;;;;;0.60;0.60;;;22.60;54.10;;;;;;6173795;28;20066;-68
2022/07/20 05:51:44;;;;;;;0.65;0.60;;;22.60;54.10;;;;;;6188042;28;20662;-69
2022/07/20 05:54:45;;;;;;;0.90;0.63;;;22.60;54.10;;;;;;6197712;28;20042;-69
2022/07/20 05:57:45;;;;;;;0.82;0.70;;;22.60;54.10;;;;;;6197843;28;20022;-69
2022/07/20 06:00:46;;;;;;;0.60;0.60;;;22.60;54.10;;;;;;6196931;28;20405;-68
2022/07/20 06:03:46;;;;;;;0.60;0.60;;;22.60;54.10;;;;;;6198066;28;20103;-68
2022/07/20 06:06:47;;;;;;;0.63;0.63;;;22.60;54.20;;;;;;6197919;28;20027;-68
2022/07/20 06:09:48;;;;;;;0.60;0.60;;;22.60;54.10;;;;;;6197473;28;20041;-69
2022/07/20 06:12:48;;;;;;;0.65;0.52;;;22.60;54.10;;;;;;6197795;28;20073;-69
2022/07/20 06:15:49;;;;;;;1.05;0.70;;;22.60;54.10;;;;;;6193022;28;20035;-68
2022/07/20 06:18:49;;;;;;;0.57;0.50;;;22.60;54.10;;;;;;6173749;28;20075;-68
2022/07/20 06:21:50;;;;;;;0.60;0.60;;;22.60;54.10;;;;;;6184643;28;20058;-68
2022/07/20 06:24:51;;;;;;;0.70;0.60;;;22.60;54.10;;;;;;6197849;28;20077;-69
2022/07/20 06:27:51;;;;;;;0.77;0.70;;;22.60;54.20;;;;;;6178641;28;20030;-68
2022/07/20 06:30:52;;;;;;;0.75;0.70;;;22.60;54.10;;;;;;6174761;28;20030;-68
2022/07/20 06:33:53;;;;;;;1.98;0.50;;;22.60;54.20;;;;;;6181807;28;20030;-68
2022/07/20 06:36:53;;;;;;;0.60;0.50;;;22.60;54.20;;;;;;6188160;28;20081;-69
2022/07/20 06:39:54;;;;;;;0.80;0.70;;;22.60;54.20;;;;;;6190147;28;20032;-69
2022/07/20 06:42:55;;;;;;;0.80;0.70;;;22.60;54.20;;;;;;6186510;28;20033;-69
2022/07/20 06:45:55;;;;;;;1.23;0.50;;;22.60;54.20;;;;;;6177517;28;20023;-69
2022/07/20 06:48:56;;;;;;;0.50;0.50;;;22.60;54.20;;;;;;6196192;28;20141;-69
2022/07/20 06:51:57;;;;;;;0.63;0.60;;;22.60;54.20;;;;;;6195525;28;20377;-69
2022/07/20 06:54:57;;;;;;;0.70;0.70;;;22.60;54.10;;;;;;6195917;28;20026;-69
2022/07/20 06:57:58;;;;;;;0.73;0.73;;;22.60;54.20;;;;;;6180637;28;20030;-68
2022/07/20 07:00:59;;;;;;;0.60;0.60;;;22.60;54.20;;;;;;6171805;28;20050;-69
2022/07/20 07:04:00;;;;;;;0.80;0.70;;;22.60;54.20;;;;;;6177291;28;20030;-69
2022/07/20 07:07:02;;;;;;;0.52;0.52;;;22.60;54.20;;;;;;6195987;28;20109;-69
2022/07/20 07:10:03;;;;;;;0.70;0.65;;;22.60;54.20;;;;;;6160152;28;20027;-70
2022/07/20 07:13:03;;;;;;;0.63;0.57;;;22.60;54.20;;;;;;6185748;28;20022;-69
2022/07/20 07:16:04;;;;;;;1.90;0.75;;;22.60;55.50;;;;;;6195408;28;20386;-68
2022/07/20 07:19:05;;;;;;;1.80;0.60;;;22.70;56.10;;;;;;6173647;28;20050;-68
2022/07/20 07:22:06;;;;;;;2.75;0.90;;;22.70;56.50;;;;;;6176031;28;20027;-68
2022/07/20 07:25:07;;;;;;;3.13;0.75;;;22.70;56.00;;;;;;6195361;28;20113;-68
2022/07/20 07:28:08;;;;;;;1.38;0.68;;;22.70;56.40;;;;;;6177928;28;20035;-69
2022/07/20 07:31:09;;;;;;;3.53;0.70;;;22.80;56.50;;;;;;6170950;28;20034;-68
2022/07/20 07:34:09;;;;;;;2.15;0.75;;;22.80;56.70;;;;;;6191615;28;20514;-68
2022/07/20 07:37:10;;;;;;;1.13;0.60;;;22.80;56.50;;;;;;6191193;28;20035;-68
2022/07/20 07:40:11;;;;;;;1.00;0.77;;;22.80;56.30;;;;;;6171310;28;20073;-69
2022/07/20 07:43:12;;;;;;;3.40;0.80;;;22.80;55.90;;;;;;6182250;28;20386;-68
2022/07/20 07:46:12;;;;;;;1.10;0.70;;;22.80;55.80;;;;;;6195447;28;20022;-69
2022/07/20 07:49:14;;;;;;;1.08;0.80;;;22.80;55.60;;;;;;6176391;28;20049;-69
2022/07/20 07:52:15;;;;;;;0.90;0.70;;;22.80;55.50;;;;;;6173353;28;20065;-68
2022/07/20 07:55:15;;;;;;;1.80;0.68;;;22.80;55.30;;;;;;6185550;28;20030;-68
2022/07/20 07:58:16;;;;;;;0.95;0.60;;;22.80;55.40;;;;;;6193664;28;20026;-69
2022/07/20 08:01:16;;;;;;;0.50;0.50;;;22.80;55.40;;;;;;6189880;28;20030;-69
2022/07/20 08:04:17;;;;;;;1.10;0.70;;;22.80;55.40;;;;;;6186327;28;20495;-69
2022/07/20 08:07:18;;;;;;;1.33;0.90;;;22.80;55.30;;;;;;6187243;28;20076;-69
2022/07/20 08:10:19;;;;;;;3.42;0.70;;;22.70;55.20;;;;;;6177078;28;20041;-68
2022/07/20 08:13:19;;;;;;;0.60;0.60;;;22.70;55.70;;;;;;6178621;28;20050;-68
2022/07/20 08:16:20;;;;;;;3.65;0.70;;;22.80;55.90;;;;;;6190355;28;20038;-68
2022/07/20 08:19:21;;;;;;;2.10;0.70;;;22.80;58.00;;;;;;6192622;28;20113;-68
2022/07/20 08:22:22;;;;;;;1.88;0.80;;;22.90;56.50;;;;;;6164268;28;20022;-68
2022/07/20 08:25:22;;;;;;;1.70;0.93;;;22.80;55.90;;;;;;6194025;28;20085;-69
2022/07/20 08:28:23;;;;;;;1.48;0.70;;;22.80;55.90;;;;;;6183275;28;20034;-68
2022/07/20 08:31:24;;;;;;;0.98;0.73;;;22.80;55.80;;;;;;6193290;28;20165;-69
2022/07/20 08:34:25;;;;;;;1.08;0.90;;;22.80;55.70;;;;;;6180551;28;20382;-71
2022/07/20 08:37:25;;;;;;;0.95;0.80;;;22.90;56.20;;;;;;6170329;28;20039;-69
2022/07/20 08:40:27;;;;;;;1.20;0.80;;;22.90;55.80;;;;;;6194051;28;20378;-68
2022/07/20 08:43:29;;;;;;;0.65;0.63;;;22.90;55.80;;;;;;6180166;28;20030;-68
2022/07/20 08:46:32;;;;;;;1.65;0.88;;;22.90;55.60;;;;;;6199040;28;20153;-68
2022/07/20 08:49:34;;;;;;;2.40;0.98;;;22.80;55.40;;;;;;6199229;28;20062;-68
2022/07/20 08:52:35;;;;;;;1.35;0.90;;;22.80;55.30;;;;;;6199143;28;20026;-68
2022/07/20 08:55:35;;;;;;;1.40;0.70;;;22.80;55.30;;;;;;6198846;28;20081;-68
2022/07/20 08:58:36;;;;;;;1.17;0.82;;;22.80;55.30;;;;;;6199127;28;20026;-67
2022/07/20 09:02:02;;;;;;;0.85;0.55;;;22.80;55.30;;;;;;6199217;28;20030;-68
2022/07/20 09:05:03;;;;;;;1.30;0.85;;;22.80;55.30;;;;;;6199193;28;20030;-68
2022/07/20 09:08:05;;;;;;;1.70;1.00;;;22.80;55.30;;;;;;6199431;28;20053;-68
2022/07/20 09:11:08;;;;;;;0.85;0.80;;;22.80;55.20;;;;;;6175940;28;20042;-68
2022/07/20 09:14:08;;;;;;;1.20;0.80;;;22.80;55.30;;;;;;6181145;28;20073;-68
2022/07/20 09:17:28;;;;;;;2.35;0.75;;;22.80;55.20;;;;;;6198705;28;20775;-68
2022/07/20 09:20:31;;;;;;;1.55;0.63;;;22.80;55.20;;;;;;6197496;28;20116;-68
2022/07/20 09:23:43;;;;;;;1.23;0.70;;;22.80;55.20;;;;;;6198793;28;20382;-68
2022/07/20 09:26:44;;;;;;;1.08;0.70;;;22.80;55.10;;;;;;6198618;28;20382;-68
2022/07/20 09:30:06;;;;;;;1.20;0.80;;;22.80;55.10;;;;;;6198675;28;20022;-68
2022/07/20 09:33:06;;;;;;;0.80;0.50;;;22.80;55.10;;;;;;6198450;28;20045;-68
2022/07/20 09:36:07;;;;;;;0.60;0.57;;;22.80;55.10;;;;;;6198340;28;20565;-68
2022/07/20 09:39:26;;;;;;;0.82;0.70;;;22.80;55.00;;;;;;6195230;28;20019;-69
2022/07/20 09:42:41;;;;;;;1.00;0.60;;;22.80;55.10;;;;;;6174240;28;20062;-68
2022/07/20 09:45:42;;;;;;;0.93;0.60;;;22.80;55.10;;;;;;6189700;28;20030;-68
2022/07/20 09:48:54;;;;;;;0.88;0.70;;;22.70;55.00;;;;;;6197658;28;20108;-68
2022/07/20 09:51:59;;;;;;;2.90;0.80;;;22.70;55.00;;;;;;6173084;28;20400;-68
2022/07/20 09:55:00;;;;;;;0.60;0.55;;;22.70;55.00;;;;;;6189175;28;20034;-68
2022/07/20 09:58:01;;;;;;;0.63;0.60;;;22.70;55.00;;;;;;6198160;28;20034;-68
2022/07/20 10:01:02;;;;;;;1.23;0.90;;;22.70;55.00;;;;;;6197778;28;20089;-68
2022/07/20 10:04:05;;;;;;;0.68;0.60;;;22.70;55.00;;;;;;6198008;28;20026;-68
2022/07/20 10:07:06;;;;;;;1.15;0.80;;;22.70;55.10;;;;;;6173769;28;20027;-68
2022/07/20 10:10:07;;;;;;;1.02;0.80;;;22.70;55.10;;;;;;6180865;28;20029;-68
2022/07/20 10:13:08;;;;;;;0.70;0.60;;;22.70;55.00;;;;;;6197301;28;20027;-68
2022/07/20 10:16:26;;;;;;;1.05;0.70;;;22.70;55.00;;;;;;6183114;28;20035;-68
2022/07/20 10:19:46;;;;;;;0.82;0.68;;;22.70;55.00;;;;;;6173433;28;20438;-68
2022/07/20 10:23:15;;;;;;;0.75;0.60;;;22.70;55.00;;;;;;6197504;28;20030;-68
2022/07/20 10:26:28;;;;;;;1.63;0.70;;;22.70;55.00;;;;;;6185527;28;20114;-69
2022/07/20 10:29:39;;;;;;;3.28;0.70;;;22.70;55.00;;;;;;6186149;28;20147;-68
2022/07/20 10:32:56;;;;;;;2.03;0.90;;;22.70;55.60;;;;;;6193727;28;20105;-68
2022/07/20 10:39:45;;;;;;;0.80;0.80;;;22.70;55.30;;;;;;6196412;28;20042;-68
2022/07/20 10:43:10;;;;;;;1.17;0.70;;;22.70;55.10;;;;;;6172493;28;20029;-68
2022/07/20 10:46:33;;;;;;;1.10;0.88;;;22.70;55.00;;;;;;6196019;28;20065;-68
2022/07/20 10:49:58;;;;;;;0.90;0.70;;;22.70;55.00;;;;;;6196125;28;20050;-68
2022/07/20 10:53:11;;;;;;;1.08;0.95;;;22.70;55.00;;;;;;6164344;28;20043;-67
2022/07/20 10:56:12;;;;;;;1.20;1.00;;;22.70;55.00;;;;;;6181504;28;20125;-67
2022/07/20 10:59:13;;;;;;;0.85;0.75;;;22.70;55.00;;;;;;6194415;28;20033;-68
2022/07/20 11:02:14;;;;;;;0.80;0.70;;;22.70;55.00;;;;;;6177024;28;20023;-68
2022/07/20 11:05:21;;;;;;;0.63;0.55;;;22.70;55.00;;;;;;6159573;28;20026;-67
2022/07/20 11:08:21;;;;;;;0.82;0.75;;;22.70;54.90;;;;;;6194954;28;20027;-68
2022/07/20 11:11:30;;;;;;;1.20;1.00;;;22.70;54.90;;;;;;6174294;28;20529;-69
2022/07/20 11:14:51;;;;;;;0.80;0.80;;;22.70;54.90;;;;;;6193033;28;20031;-68
2022/07/20 11:17:54;;;;;;;1.20;0.73;;;22.70;54.90;;;;;;6175033;28;20062;-67
2022/07/20 11:20:57;;;;;;;1.42;0.90;;;22.70;55.50;;;;;;6194071;28;20125;-68
2022/07/20 11:23:58;;;;;;;4.20;0.80;;;22.80;55.80;;;;;;6182670;28;20038;-68
2022/07/20 11:27:15;;;;;;;1.75;0.70;;;22.80;55.70;;;;;;6192909;28;20058;-68
2022/07/20 11:30:16;;;;;;;4.05;0.98;;;22.80;55.70;;;;;;6191905;28;20080;-69
2022/07/20 11:33:29;;;;;;;0.90;0.80;;;22.80;55.90;;;;;;6191276;28;20038;-69
2022/07/20 11:36:32;;;;;;;1.52;0.80;;;22.80;55.70;;;;;;6192523;28;20436;-68
2022/07/20 11:39:33;;;;;;;2.22;1.00;;;22.80;55.60;;;;;;6192160;28;20030;-68
2022/07/20 11:42:33;;;;;;;2.92;0.90;;;22.80;55.50;;;;;;6193321;28;20385;-69
2022/07/20 11:45:34;;;;;;;1.95;1.10;;;22.90;55.60;;;;;;6189954;28;20068;-68
2022/07/20 11:48:35;;;;;;;2.22;0.80;;;22.80;55.40;;;;;;6192354;28;20060;-67
2022/07/20 11:51:37;;;;;;;1.58;0.90;;;22.90;55.40;;;;;;6190606;28;20578;-67
2022/07/20 11:54:38;;;;;;;0.90;0.73;;;22.90;55.40;;;;;;6194041;28;20026;-67
2022/07/20 11:57:40;;;;;;;1.25;0.75;;;22.90;56.10;;;;;;6194078;28;20030;-67
2022/07/20 12:00:42;;;;;;;2.10;0.80;;;22.90;55.30;;;;;;6193455;28;20029;-67
2022/07/20 12:03:48;;;;;;;1.52;1.00;;;22.90;55.40;;;;;;6193551;28;20397;-67
2022/07/20 12:06:53;;;;;;;1.23;0.90;;;22.90;55.40;;;;;;6191131;28;20073;-67
2022/07/20 12:09:53;;;;;;;1.10;0.63;;;22.80;55.30;;;;;;6193785;28;20026;-67
2022/07/20 12:13:06;;;;;;;1.38;1.00;;;22.80;55.30;;;;;;6193317;28;20030;-66
2022/07/20 12:16:07;;;;;;;1.00;0.90;;;22.80;55.30;;;;;;6193681;28;20035;-67
2022/07/20 12:19:07;;;;;;;1.60;0.68;;;22.80;55.10;;;;;;6184653;28;20031;-67
2022/07/20 12:22:30;;;;;;;1.77;0.80;;;22.80;52.80;;;;;;6189463;28;20062;-68
2022/07/20 12:25:39;;;;;;;0.95;0.85;;;22.90;52.20;;;;;;6193106;28;20018;-68
2022/07/20 12:28:40;;;;;;;0.80;0.55;;;23.00;51.60;;;;;;6193241;28;20026;-68
2022/07/20 12:31:41;;;;;;;1.00;0.80;;;23.20;51.30;;;;;;6190279;28;20042;-68
2022/07/20 12:34:52;;;;;;;4.10;0.80;;;23.30;50.90;;;;;;6177591;28;20029;-68
2022/07/20 12:37:58;;;;;;;1.33;0.93;;;23.30;50.80;;;;;;6194380;28;20117;-69
2022/07/20 12:41:12;;;;;;;1.50;0.95;;;23.40;50.50;;;;;;6165730;28;20026;-68
2022/07/20 12:44:26;;;;;;;1.80;0.73;;;23.50;50.20;;;;;;6189152;28;20109;-68
2022/07/20 12:47:27;;;;;;;1.75;1.00;;;23.60;49.90;;;;;;6188956;28;20034;-68
2022/07/20 12:50:28;;;;;;;0.88;0.77;;;23.70;49.70;;;;;;6169427;28;20078;-69
2022/07/20 12:53:28;;;;;;;3.03;1.15;;;23.70;49.70;;;;;;6182156;28;20025;-68
2022/07/20 12:56:29;;;;;;;1.85;0.80;;;23.70;49.80;;;;;;6182638;28;20089;-68
2022/07/20 12:59:29;;;;;;;0.95;0.75;;;23.70;49.70;;;;;;6189478;28;20081;-68
2022/07/20 13:02:30;;;;;;;1.80;0.90;;;23.70;49.50;;;;;;6190345;28;20406;-68
2022/07/20 13:05:31;;;;;;;1.02;0.90;;;23.70;49.40;;;;;;6169068;28;20023;-68
2022/07/20 13:08:33;;;;;;;0.68;0.68;;;23.70;49.30;;;;;;6170848;28;20027;-68
2022/07/20 13:11:33;;;;;;;0.65;0.65;;;23.70;49.20;;;;;;6169530;28;20031;-68
2022/07/20 13:14:34;;;;;;;1.20;0.90;;;23.70;49.20;;;;;;6187394;28;20104;-69
2022/07/20 13:17:35;;;;;;;1.00;0.70;;;23.70;49.00;;;;;;6191343;28;20449;-69
2022/07/20 13:20:37;;;;;;;1.00;0.70;;;23.70;48.80;;;;;;6175938;28;20053;-68
2022/07/20 13:23:38;;;;;;;1.40;0.80;;;23.80;48.90;;;;;;6190015;28;20026;-69
2022/07/20 13:26:41;;;;;;;2.50;0.95;;;23.70;48.70;;;;;;6197095;28;20035;-68
2022/07/20 13:29:42;;;;;;;1.30;0.68;;;23.70;48.80;;;;;;6197487;28;20031;-68
2022/07/20 13:32:43;;;;;;;4.45;0.80;;;23.70;48.80;;;;;;6175870;28;20059;-68
2022/07/20 13:35:44;;;;;;;0.68;0.57;;;23.80;48.70;;;;;;6196973;28;20043;-68
2022/07/20 13:38:48;;;;;;;1.33;0.98;;;23.80;48.60;;;;;;6188877;28;20167;-68
2022/07/20 13:41:49;;;;;;;1.08;0.80;;;23.70;48.60;;;;;;6172881;28;20023;-70
2022/07/20 13:44:50;;;;;;;1.35;0.90;;;23.80;48.60;;;;;;6189161;28;20033;-68
2022/07/20 13:47:50;;;;;;;1.35;0.90;;;23.80;48.50;;;;;;6197282;28;20081;-68
2022/07/20 13:50:52;;;;;;;1.45;1.02;;;23.80;48.40;;;;;;6197063;28;20532;-68
2022/07/20 13:53:52;;;;;;;0.80;0.68;;;23.80;48.30;;;;;;6196682;28;20022;-69
2022/07/20 13:56:53;;;;;;;1.58;0.90;;;23.80;48.20;;;;;;6188650;28;20146;-68
2022/07/20 13:59:54;;;;;;;1.02;0.80;;;23.80;48.20;;;;;;6183445;28;20058;-67
2022/07/20 14:02:54;;;;;;;0.68;0.68;;;23.80;48.20;;;;;;6172812;28;20142;-67
2022/07/20 14:05:55;;;;;;;2.10;1.05;;;23.80;48.20;;;;;;6194475;28;20026;-67
2022/07/20 14:08:56;;;;;;;3.70;0.80;;;23.80;48.10;;;;;;6190856;28;20118;-70
2022/07/20 14:11:57;;;;;;;2.15;0.73;;;23.80;48.10;;;;;;6172281;28;20461;-67
2022/07/20 14:14:57;;;;;;;1.00;0.90;;;23.80;48.00;;;;;;6185148;28;20030;-67
2022/07/20 14:17:58;;;;;;;1.45;0.90;;;23.80;48.00;;;;;;6196513;28;20030;-68
2022/07/20 14:20:59;;;;;;;1.67;0.98;;;23.70;47.90;;;;;;6176489;28;20057;-67
2022/07/20 14:23:59;;;;;;;1.30;0.98;;;23.80;47.90;;;;;;6182660;28;20034;-67
2022/07/20 14:27:00;;;;;;;2.33;1.30;;;23.80;47.80;;;;;;6190716;28;20038;-67
2022/07/20 14:30:02;;;;;;;1.17;0.90;;;23.80;47.80;;;;;;6183665;28;20030;-67
2022/07/20 14:33:03;;;;;;;4.75;0.90;;;23.80;48.00;;;;;;6172056;28;20023;-67
2022/07/20 14:36:04;;;;;;;2.75;1.20;;;23.80;47.90;;;;;;6190712;28;20029;-68
2022/07/20 14:39:05;;;;;;;2.55;1.00;;;23.80;47.90;;;;;;6191615;28;20474;-67
2022/07/20 14:42:06;;;;;;;1.23;0.90;;;23.80;47.80;;;;;;6171705;28;20023;-68
2022/07/20 14:45:07;;;;;;;1.60;1.00;;;23.80;47.70;;;;;;6181446;28;20057;-67
2022/07/20 14:48:07;;;;;;;2.03;1.00;;;23.80;47.90;;;;;;6195455;28;20706;-67
2022/07/20 14:51:09;;;;;;;3.67;1.08;;;23.80;47.40;;;;;;6183135;28;20033;-68
2022/07/20 14:54:09;;;;;;;2.00;0.90;;;23.80;47.60;;;;;;6194169;28;20426;-68
2022/07/20 14:57:10;;;;;;;1.23;1.02;;;23.80;47.70;;;;;;6195345;28;20042;-67
2022/07/20 15:00:11;;;;;;;1.88;0.90;;;23.80;47.60;;;;;;6195402;28;20101;-67
2022/07/20 15:03:12;;;;;;;1.75;0.88;;;23.80;47.40;;;;;;6195311;28;20034;-67
2022/07/20 15:06:12;;;;;;;1.25;0.88;;;23.80;47.40;;;;;;6177852;28;20023;-67
2022/07/20 15:09:13;;;;;;;2.33;1.00;;;23.90;47.30;;;;;;6171309;28;20027;-67
2022/07/20 15:12:14;;;;;;;2.00;1.05;;;23.90;47.20;;;;;;6189568;28;20030;-67
2022/07/20 15:15:14;;;;;;;1.38;0.90;;;23.80;47.50;;;;;;6186901;28;20074;-68
2022/07/20 15:18:15;;;;;;;1.48;0.68;;;23.90;47.20;;;;;;6170758;28;20030;-68
2022/07/20 15:21:16;;;;;;;2.90;0.90;;;23.90;47.50;;;;;;6184372;28;20038;-68
2022/07/20 15:24:17;;;;;;;1.52;0.90;;;23.80;47.40;;;;;;6194267;28;20023;-68
2022/07/20 15:27:18;;;;;;;1.30;0.93;;;23.90;47.50;;;;;;6194901;28;20042;-68
2022/07/20 15:30:19;;;;;;;0.88;0.73;;;23.90;47.40;;;;;;6188242;28;20027;-68
2022/07/20 15:33:20;;;;;;;1.13;1.00;;;23.80;47.20;;;;;;6170875;28;20019;-68
2022/07/20 15:36:20;;;;;;;1.13;0.93;;;23.80;47.40;;;;;;6184025;28;20822;-67
2022/07/20 15:39:21;;;;;;;1.58;0.75;;;23.90;47.00;;;;;;6194650;28;20050;-68
2022/07/20 15:42:22;;;;;;;2.05;0.80;;;23.90;47.20;;;;;;6172962;28;20101;-67
2022/07/20 15:45:22;;;;;;;0.70;0.70;;;23.90;47.30;;;;;;6174882;28;20097;-67
2022/07/20 15:48:23;;;;;;;1.13;0.80;;;23.90;47.10;;;;;;6193272;28;20045;-67
2022/07/20 15:51:24;;;;;;;1.27;0.77;;;23.90;47.10;;;;;;6182342;28;20037;-68
2022/07/20 15:54:24;;;;;;;1.88;0.80;;;23.90;47.00;;;;;;6179318;28;20041;-68
2022/07/20 15:57:26;;;;;;;1.73;1.05;;;24.00;48.70;;;;;;6174203;28;20671;-68